Aviation Digital Data Service (ADDS)

Output produced by METARs form (0432 UTC 13 February 2016)
found at http://aviationweather.gov/adds/metars/
 
KAND 122333Z 1300/1324 29006KT P6SM SCT070 
     FM130300 28010KT P6SM FEW250 
     FM131000 28006KT P6SM FEW200 
     FM131400 32006KT P6SM SKC 
     FM132000 28006KT P6SM SKC